Dauntless Aviation
Airports Europe Belgium
EBCI
CRL

Brussels South Charleroi Airport

Brussels, BELGIUM

Airport Info
Suggest Updated Information for this Airport

Location

Latitude / Longitude: 50°27'33"N / 4°27'13"E
  50°27.552'N / 4°27.228'E
  50.4592 / 4.4538

Nearby radio navigation aids

GSY GOSLY VOR/DME on field.
ONC CHARLEROI NDB. 246.2° 4.3nm from ONC to field.

Runway Information

Runway 07 /25

Dimensions: 8366 x 148 ft.
Surface: ASP
 
Runway 07
Runway 25
Latitude: 50.456856 50.464672
Longitude: 4.442503 4.469403
Elevation: 611 ft. 611 ft.
Runway true heading: 63.1 243.1
 

Instrument Procedures

  Aerodrome Chart
  Aerodrome Ground Movement Chart
  Aerodrome Chart Appendix 1: Runway Markings and Light Aids
  Aerodrome Ground Movement Chart Appendix 2: Hot Spots
  Aerodrome Ground Movement Chart Appendix 1: Low Visibility Procedures

STARs (Standard Terminal Arrivals)

  STAR - Instrument
  STAR - Instrument RNAV1 Overlay)

IAPs (Instrument Approach Procedures)

  Visual Approach Chart
  Precision Approach Terrain Chart Rwy 24
  RNP Rwy 06. Appendix: FAS Datablock
  RNP Rwy 24. Appendix: FAS Datablock
  ILS or LOC Rwy 24
  VOR Rwy 24
  VOR Rwy 06
  RNP Rwy 06
  RNP Rwy 24
  Aerodrome Information (Textual)
  Aerodrome Obstacle Chart. Type A (Operating Limitations)

Departure Procedures

  SID - Instrument Rwy 06
  SID - Instrument Rwy 24
  SID - Instrument Rwy 06 (P-RNAV Overlay GNSS / DME-DME)
  SID - Instrument Rwy 24 (P-RNAV Overlay GNSS / DME-DME)
Satellite photo at:
Airport distance calculator
From:
Weather Reports

METAR

EBCI

EBCI 181650Z VRB01KT 9999 FEW044 25/12 Q1014 NOSIG
EBFS
16.4nm SE
EBFS 181655Z AUTO 02005KT 9999 FEW036/// 23/15 Q1014 BLU
EBBE
21.1nm N
EBBE 181655Z AUTO 27003KT 9999 NCD 26/15 Q1013 BLU
EBCV
25.2nm W
EBCV 181655Z AUTO 32005KT 9999 FEW049/// 26/14 Q1013 BLU
EBBR
26.5nm N
EBBR 181650Z 34006KT 300V020 9999 SCT040 25/14 Q1013 NOSIG
EBLG
39.4nm NE
EBLG 181650Z VRB02KT 9999 FEW040 24/15 Q1013 NOSIG

TAF

EBCI
TAF EBCI 181115Z 1812/1918 34006KT 9999 SCT020 SCT040 PROB30 TEMPO 1902/1906 3000 BR BKN005 BECMG 1910/1912 26010KT PROB40 TEMPO 1914/1918 3500 SHRA
EBFS
16.4nm SE
TAF EBFS 181141Z 1813/1822 35005KT 9999 FEW030 SCT040 TEMPO 1813/1818 7000 -SHRA SCT020TCU BKN030
EBBE
21.1nm N
TAF EBBE 181141Z 1813/1822 34006KT 9999 FEW040 SCT045
EBCV
25.2nm W
TAF EBCV 181141Z 1813/1822 28005KT 9999 FEW030 SCT035 BY EBWM
EBBR
26.5nm N
TAF EBBR 181115Z 1812/1918 34006KT 9999 SCT025 SCT045 PROB30 TEMPO 1903/1906 4000 BR BECMG 1909/1911 26010KT PROB40 TEMPO 1914/1918 3500 SHRA
EBLG
39.4nm NE
TAF EBLG 181115Z 1812/1918 35006KT 9999 SCT020 SCT040 PROB30 TEMPO 1902/1906 3000 BR BKN005 BECMG 1910/1912 26010KT PROB40 TEMPO 1915/1918 3500 SHRA
Safelog

 

Dauntless Aviation

© 2007-2022 Dauntless Aviation, all rights reserved
Information provided via PilotNav comes from a variety of official and unofficial data sources. As errors are possible, do not use PilotNav for primary flight planning purposes. Verify any information that you receive via PilotNav with current and canonical charts and other official documents. The material in this database is subject to database copyrights held by Dauntless Aviation and may not be copied without the express permission of Dauntless Aviation - licenses for use of part of all of this data are available for purchase; enquire via the Dauntless Aviation helpdesk. A number of mechanisms and markers exist in the database to protect against and identify infringement / copyright. Automated queries against this website are strictly prohibited, and all activity is logged and analyzed.